Time;durP1;ratioP1;P1;durP2;ratioP2;P2;SDS_P1;SDS_P2;PMS_P1;PMS_P2;Temp;Humidity;BMP_temperature;BMP_pressure;BME280_temperature;BME280_humidity;BME280_pressure;Samples;Min_cycle;Max_cycle;Signal;HPM_P1;HPM_P2
2022/02/05 00:00:24;;;;;;;1.85;1.35;;;;;;;1.08;80.76;98286.47;4186720;28;20627;-72
2022/02/05 00:02:24;;;;;;;2.50;1.38;;;;;;;1.03;81.41;98286.59;4185904;28;20255;-72
2022/02/05 00:04:25;;;;;;;3.17;1.85;;;;;;;0.96;81.60;98288.22;4185918;28;20048;-72
2022/02/05 00:06:31;;;;;;;2.00;1.30;;;;;;;0.95;81.56;98300.22;4187123;28;20040;-72
2022/02/05 00:08:47;;;;;;;3.60;2.20;;;;;;;1.00;80.89;98297.34;4186900;28;20616;-72
2022/02/05 00:15:35;;;;;;;1.85;1.42;;;;;;;0.94;81.58;98310.31;4187278;28;20072;-71
2022/02/05 00:40:11;;;;;;;2.55;2.10;;;;;;;1.23;80.68;98338.88;4185607;28;20400;-72
2022/02/05 00:42:37;;;;;;;3.30;2.20;;;;;;;1.25;80.62;98344.81;4186393;28;20491;-72
2022/02/05 00:44:37;;;;;;;3.38;2.30;;;;;;;1.34;80.77;98348.34;4185903;28;20051;-72
2022/02/05 00:46:40;;;;;;;3.22;2.03;;;;;;;1.38;80.43;98343.84;4185441;28;20037;-71
2022/02/05 00:48:40;;;;;;;5.78;1.98;;;;;;;1.36;81.51;98335.19;4186773;28;20531;-71
2022/02/05 00:50:46;;;;;;;3.03;1.92;;;;;;;1.47;81.37;98352.03;4186022;28;20562;-72
2022/02/05 00:52:58;;;;;;;4.82;2.05;;;;;;;1.55;80.39;98349.28;4185751;28;20080;-72
2022/02/05 00:55:23;;;;;;;6.47;2.25;;;;;;;1.58;80.99;98362.28;4185630;28;20041;-72
2022/02/05 00:59:27;;;;;;;3.53;2.00;;;;;;;1.57;81.08;98352.53;4185497;28;20047;-72
2022/02/05 01:01:28;;;;;;;3.58;2.10;;;;;;;1.62;81.13;98359.72;4185771;28;20415;-72
2022/02/05 01:03:28;;;;;;;3.30;2.13;;;;;;;1.59;81.12;98360.38;4186121;28;20428;-72
2022/02/05 01:05:29;;;;;;;6.35;2.60;;;;;;;1.59;81.06;98352.19;4185788;28;20101;-72
2022/02/05 01:07:30;;;;;;;4.72;2.15;;;;;;;1.55;81.06;98356.66;4185266;28;20044;-72
2022/02/05 01:09:30;;;;;;;5.18;2.22;;;;;;;1.53;81.26;98359.72;4186074;28;20387;-72
2022/02/05 01:11:30;;;;;;;4.75;2.80;;;;;;;1.49;81.39;98363.41;4185955;28;20040;-72
2022/02/05 01:13:33;;;;;;;3.50;2.35;;;;;;;1.46;80.90;98355.88;4185988;28;20040;-72
2022/02/05 01:15:35;;;;;;;4.65;2.78;;;;;;;1.42;80.94;98358.44;4184303;28;20488;-72
2022/02/05 01:17:43;;;;;;;4.95;3.08;;;;;;;1.48;80.22;98359.06;4185133;28;20408;-72
2022/02/05 01:21:56;;;;;;;4.93;2.63;;;;;;;1.44;81.41;98379.94;4185450;28;20057;-72
2022/02/05 01:24:01;;;;;;;4.07;2.30;;;;;;;1.46;80.71;98386.66;4186145;28;20075;-72
2022/02/05 01:26:12;;;;;;;6.55;2.45;;;;;;;1.40;81.63;98402.38;4184886;28;20037;-72
2022/02/05 01:28:21;;;;;;;5.80;2.75;;;;;;;1.34;81.16;98400.94;4184468;28;20497;-72
2022/02/05 01:30:35;;;;;;;3.53;2.25;;;;;;;1.33;81.57;98396.63;4185377;28;20048;-71
2022/02/05 01:32:39;;;;;;;7.28;2.60;;;;;;;1.28;82.23;98407.66;4184353;28;20343;-71
2022/02/05 01:35:08;;;;;;;6.32;2.70;;;;;;;1.22;82.35;98403.47;4185870;28;20064;-71
2022/02/05 02:11:33;;;;;;;3.70;2.40;;;;;;;0.75;84.85;98448.72;4184833;28;20456;-71
2022/02/05 02:15:43;;;;;;;4.93;2.85;;;;;;;0.77;84.92;98449.19;4185174;28;20090;-71
2022/02/05 02:24:34;;;;;;;4.68;2.80;;;;;;;0.78;85.42;98440.72;4185330;28;20469;-71
2022/02/05 02:26:57;;;;;;;5.32;3.20;;;;;;;0.80;85.13;98445.84;4183779;28;20044;-71
2022/02/05 02:29:09;;;;;;;6.15;3.20;;;;;;;0.86;84.97;98441.84;4184822;28;20052;-72
2022/02/05 02:31:15;;;;;;;5.75;3.13;;;;;;;0.85;85.39;98442.97;4184604;28;20516;-72
2022/02/05 02:33:24;;;;;;;8.65;3.97;;;;;;;0.85;84.89;98426.63;4185228;28;20131;-71
2022/02/05 02:35:27;;;;;;;6.13;4.07;;;;;;;0.84;85.35;98425.03;4184245;28;20041;-71
2022/02/05 02:38:14;;;;;;;5.93;3.58;;;;;;;0.91;85.28;98427.28;4183988;28;20052;-72
2022/02/05 02:40:17;;;;;;;6.47;3.65;;;;;;;0.88;85.44;98436.09;4178822;28;20451;-71
2022/02/05 02:42:18;;;;;;;5.03;3.80;;;;;;;0.84;85.77;98449.53;4184505;28;20045;-71
2022/02/05 02:44:19;;;;;;;5.00;3.70;;;;;;;0.86;85.35;98444.59;4185216;28;20035;-71
2022/02/05 02:46:20;;;;;;;7.15;3.55;;;;;;;0.83;85.78;98442.50;4184981;28;20025;-72
2022/02/05 02:48:21;;;;;;;5.07;3.67;;;;;;;0.91;84.96;98447.16;4186506;28;20412;-71
2022/02/05 02:57:24;;;;;;;5.60;3.95;;;;;;;1.04;85.30;98459.06;4187003;28;20194;-72
2022/02/05 02:59:29;;;;;;;6.28;3.50;;;;;;;1.09;84.73;98464.38;4188285;28;20073;-72
2022/02/05 03:01:32;;;;;;;6.22;3.50;;;;;;;1.02;85.56;98469.47;4187650;28;20048;-72
2022/02/05 03:03:32;;;;;;;4.35;3.33;;;;;;;1.03;85.62;98482.78;4187360;28;20044;-72
2022/02/05 03:05:33;;;;;;;6.10;3.45;;;;;;;1.03;85.46;98471.88;4187916;28;20036;-72
2022/02/05 03:07:33;;;;;;;5.88;3.70;;;;;;;1.01;86.10;98490.47;4186479;28;20340;-74
2022/02/05 03:09:34;;;;;;;6.50;3.45;;;;;;;1.00;85.77;98479.91;4188019;28;20040;-72
2022/02/05 03:11:34;;;;;;;7.03;3.80;;;;;;;1.08;85.39;98490.03;4188342;28;20075;-72
2022/02/05 03:13:35;;;;;;;5.55;3.90;;;;;;;1.08;85.33;98495.47;4184054;28;20048;-72
2022/02/05 03:15:40;;;;;;;8.55;3.75;;;;;;;1.17;84.34;98503.69;4188354;28;20052;-72
2022/02/05 03:17:53;;;;;;;8.25;3.63;;;;;;;1.08;84.87;98507.19;4187202;28;20400;-72
2022/02/05 03:19:55;;;;;;;5.82;3.40;;;;;;;1.06;84.64;98508.59;4187871;28;20071;-73
2022/02/05 03:21:55;;;;;;;5.75;3.95;;;;;;;1.08;84.66;98495.47;4187807;28;20392;-72
2022/02/05 03:23:55;;;;;;;5.40;3.45;;;;;;;1.09;84.34;98502.53;4187566;28;20087;-72
2022/02/05 03:25:56;;;;;;;5.20;3.88;;;;;;;1.09;83.97;98499.81;4187346;28;20036;-72
2022/02/05 03:27:56;;;;;;;5.95;3.65;;;;;;;1.12;83.77;98507.34;4186922;28;20541;-72
2022/02/05 03:29:57;;;;;;;5.95;4.32;;;;;;;1.10;83.30;98510.38;4187388;28;20498;-72
2022/02/05 03:31:57;;;;;;;6.55;3.90;;;;;;;1.16;82.77;98505.59;4187253;28;20068;-72
2022/02/05 03:33:57;;;;;;;6.00;3.97;;;;;;;1.12;84.56;98510.84;4187341;28;20127;-72
2022/02/05 03:35:58;;;;;;;5.90;4.15;;;;;;;1.05;84.10;98506.97;4186317;28;20040;-73
2022/02/05 03:37:58;;;;;;;5.95;4.05;;;;;;;1.12;82.63;98523.69;4186700;28;20128;-72
2022/02/05 03:39:58;;;;;;;6.97;3.88;;;;;;;1.17;82.40;98517.31;4186975;28;20290;-72
2022/02/05 03:41:59;;;;;;;4.75;3.40;;;;;;;1.10;82.95;98537.63;4187745;28;20045;-72
2022/02/05 03:44:00;;;;;;;7.20;3.58;;;;;;;1.02;83.35;98524.78;4186693;28;20048;-72
2022/02/05 03:46:01;;;;;;;8.57;3.92;;;;;;;0.99;83.63;98533.56;4187043;28;20416;-74
2022/02/05 03:48:01;;;;;;;7.78;4.13;;;;;;;0.97;83.59;98529.53;4186970;28;20850;-72
2022/02/05 03:50:04;;;;;;;6.03;4.00;;;;;;;0.97;83.04;98535.00;4187616;28;20037;-73
2022/02/05 03:52:04;;;;;;;7.00;4.35;;;;;;;0.95;83.33;98535.31;4188206;28;20033;-73
2022/02/05 03:54:05;;;;;;;5.68;3.70;;;;;;;0.95;83.54;98535.31;4187474;28;20373;-72
2022/02/05 03:56:05;;;;;;;5.03;3.33;;;;;;;1.09;82.43;98532.50;4188557;28;20086;-73
2022/02/05 03:58:05;;;;;;;3.85;3.15;;;;;;;1.05;82.73;98536.94;4186954;28;20056;-71
2022/02/05 04:00:08;;;;;;;4.78;3.53;;;;;;;1.03;82.01;98533.75;4186550;28;20029;-73
2022/02/05 04:02:08;;;;;;;7.90;3.55;;;;;;;1.02;82.07;98534.88;4187801;28;20039;-71
2022/02/05 04:04:08;;;;;;;5.93;3.50;;;;;;;0.99;83.21;98538.19;4187561;28;20040;-73
2022/02/05 04:06:09;;;;;;;5.65;3.47;;;;;;;0.95;83.35;98553.59;4188021;28;20037;-73
2022/02/05 04:08:11;;;;;;;6.18;3.17;;;;;;;0.95;83.17;98543.47;4187060;28;20032;-73
2022/02/05 04:10:15;;;;;;;8.07;4.07;;;;;;;0.88;83.86;98540.41;4187188;28;21078;-73
2022/02/05 04:17:02;;;;;;;5.80;3.28;;;;;;;0.89;83.50;98558.34;4186278;28;20056;-72
2022/02/05 04:19:02;;;;;;;8.82;3.70;;;;;;;0.88;84.05;98562.19;4187718;28;20056;-72
2022/02/05 04:21:04;;;;;;;6.90;3.80;;;;;;;0.91;84.05;98569.75;4188332;28;20055;-72
2022/02/05 04:23:04;;;;;;;5.93;3.65;;;;;;;0.92;84.42;98556.94;4187475;28;20048;-72
2022/02/05 04:25:05;;;;;;;7.05;3.40;;;;;;;0.96;83.86;98563.34;4186580;28;20694;-72
2022/02/05 04:27:07;;;;;;;6.05;4.20;;;;;;;0.91;84.29;98569.75;4188662;28;20041;-72
2022/02/05 04:29:09;;;;;;;8.38;3.47;;;;;;;0.90;84.55;98559.94;4187396;28;20448;-72
2022/02/05 04:31:10;;;;;;;7.00;4.15;;;;;;;0.95;83.82;98559.84;4187078;28;20052;-72
2022/02/05 04:33:10;;;;;;;7.88;4.10;;;;;;;0.92;84.45;98563.19;4187212;28;20048;-72
2022/02/05 04:35:10;;;;;;;5.65;3.40;;;;;;;0.87;84.69;98563.31;4187576;28;20056;-72
2022/02/05 04:37:11;;;;;;;6.60;3.80;;;;;;;0.84;84.77;98561.22;4186522;28;20513;-72
2022/02/05 04:39:15;;;;;;;6.22;4.05;;;;;;;0.90;84.11;98570.84;4186768;28;20601;-72
2022/02/05 04:41:27;;;;;;;6.38;3.63;;;;;;;0.97;83.75;98575.88;4187115;28;20044;-72
2022/02/05 04:45:59;;;;;;;6.35;3.80;;;;;;;0.99;84.19;98573.63;4187351;28;20315;-72
2022/02/05 04:52:28;;;;;;;4.90;3.55;;;;;;;0.96;84.39;98563.34;4187133;28;20043;-73
2022/02/05 04:54:46;;;;;;;7.30;4.10;;;;;;;1.04;83.23;98571.56;4186767;28;20067;-72
2022/02/05 05:03:02;;;;;;;6.55;3.50;;;;;;;1.10;83.63;98577.69;4187102;28;20105;-72
2022/02/05 05:20:30;;;;;;;7.80;4.00;;;;;;;0.97;84.47;98584.84;4186358;28;20132;-72
2022/02/05 05:22:31;;;;;;;13.52;4.55;;;;;;;0.98;84.20;98569.28;4184722;28;20560;-72
2022/02/05 05:24:31;;;;;;;6.53;3.78;;;;;;;1.10;83.44;98580.44;4186793;28;20074;-71
2022/02/05 05:26:31;;;;;;;6.70;3.65;;;;;;;1.18;82.57;98593.28;4185943;28;20040;-71
2022/02/05 05:28:32;;;;;;;4.15;3.35;;;;;;;1.17;82.36;98597.13;4186460;28;20052;-71
2022/02/05 05:30:32;;;;;;;8.25;3.50;;;;;;;1.17;82.03;98599.06;4186360;28;20044;-71
2022/02/05 05:32:33;;;;;;;5.57;3.88;;;;;;;1.15;82.37;98595.81;4186539;28;20044;-71
2022/02/05 05:34:33;;;;;;;5.68;3.85;;;;;;;1.10;81.81;98599.50;4185105;28;20040;-71
2022/02/05 05:36:34;;;;;;;7.72;4.22;;;;;;;1.05;81.48;98602.34;4185471;28;20380;-71
2022/02/05 05:38:34;;;;;;;6.00;3.00;;;;;;;1.08;81.09;98593.56;4186469;28;20680;-72
2022/02/05 05:40:36;;;;;;;5.63;3.45;;;;;;;1.14;80.68;98605.91;4186259;28;20471;-72
2022/02/05 05:42:43;;;;;;;7.53;3.80;;;;;;;1.04;81.48;98593.38;4186450;28;20048;-72
2022/02/05 05:47:13;;;;;;;4.18;3.00;;;;;;;0.97;81.62;98609.34;4185561;28;20101;-71
2022/02/05 05:51:13;;;;;;;6.95;4.05;;;;;;;0.97;81.36;98616.72;4185512;28;20048;-71
2022/02/05 05:53:14;;;;;;;6.68;3.38;;;;;;;0.90;82.28;98614.44;4185909;28;20041;-71
2022/02/05 05:55:16;;;;;;;5.47;3.50;;;;;;;1.01;81.29;98623.97;4186483;28;20054;-71
2022/02/05 05:57:16;;;;;;;5.80;3.08;;;;;;;1.09;81.48;98619.69;4185307;28;20032;-72
2022/02/05 05:59:17;;;;;;;6.00;3.90;;;;;;;1.16;81.24;98621.94;4185939;28;20052;-72
2022/02/05 06:01:17;;;;;;;7.38;4.00;;;;;;;1.16;81.20;98619.22;4185900;28;20044;-72
2022/02/05 06:03:18;;;;;;;10.70;4.35;;;;;;;1.15;81.49;98629.31;4186491;28;20052;-72
2022/02/05 06:05:19;;;;;;;8.82;3.65;;;;;;;1.08;81.69;98624.34;4185525;28;20400;-72
2022/02/05 06:07:19;;;;;;;12.05;4.00;;;;;;;1.05;82.31;98622.22;4185320;28;20056;-72
2022/02/05 06:09:19;;;;;;;5.95;4.18;;;;;;;1.05;83.18;98635.03;4186259;28;20049;-72
2022/02/05 06:11:20;;;;;;;6.10;4.00;;;;;;;0.99;83.11;98649.91;4186489;28;20052;-72
2022/02/05 06:13:20;;;;;;;7.18;3.60;;;;;;;1.07;83.08;98651.88;4186064;28;20052;-71
2022/02/05 06:15:20;;;;;;;7.53;3.80;;;;;;;1.02;83.25;98647.38;4186250;28;20040;-71
2022/02/05 06:17:25;;;;;;;11.50;4.00;;;;;;;1.02;83.83;98652.84;4185439;28;20400;-71
2022/02/05 06:19:25;;;;;;;7.78;4.18;;;;;;;1.05;83.23;98646.75;4185972;28;20055;-71
2022/02/05 06:21:25;;;;;;;8.13;3.58;;;;;;;1.02;83.73;98663.72;4186238;28;20040;-72
2022/02/05 06:23:25;;;;;;;11.73;3.90;;;;;;;1.12;83.20;98658.00;4187402;28;20052;-72
2022/02/05 06:25:26;;;;;;;7.68;4.15;;;;;;;1.16;82.56;98658.22;4189221;28;20055;-72
2022/02/05 06:27:26;;;;;;;7.88;4.40;;;;;;;1.25;82.63;98661.00;4188231;28;20287;-72
2022/02/05 06:29:27;;;;;;;4.07;3.10;;;;;;;1.29;82.19;98651.84;4188932;28;20143;-72
2022/02/05 06:31:27;;;;;;;8.35;3.30;;;;;;;1.28;82.09;98663.88;4189797;28;20115;-71
2022/02/05 06:33:27;;;;;;;5.88;4.00;;;;;;;1.27;81.54;98647.84;4188900;28;20499;-71
2022/02/05 06:35:28;;;;;;;5.43;3.45;;;;;;;1.30;81.27;98667.09;4188952;28;20036;-71
2022/02/05 06:37:28;;;;;;;6.85;3.17;;;;;;;1.29;81.53;98676.41;4188230;28;20101;-71
2022/02/05 06:39:29;;;;;;;7.97;3.90;;;;;;;1.24;81.46;98684.72;4189024;28;20036;-71
2022/02/05 06:41:29;;;;;;;7.50;3.38;;;;;;;1.20;81.70;98669.28;4189162;28;20462;-71
2022/02/05 06:43:29;;;;;;;13.27;4.05;;;;;;;1.21;81.91;98670.88;4189210;28;20215;-71
2022/02/05 06:45:30;;;;;;;4.32;2.92;;;;;;;1.23;81.41;98676.81;4189312;28;20044;-71
2022/02/05 06:47:31;;;;;;;7.63;3.17;;;;;;;1.23;81.35;98685.00;4187968;28;20106;-71
2022/02/05 06:49:33;;;;;;;5.35;3.30;;;;;;;1.21;81.56;98684.53;4188708;28;20045;-71
2022/02/05 06:51:34;;;;;;;3.45;2.88;;;;;;;1.20;82.05;98694.63;4189256;28;20680;-71
2022/02/05 06:53:34;;;;;;;7.53;3.35;;;;;;;1.20;81.48;98713.69;4188621;28;20554;-71
2022/02/05 06:55:35;;;;;;;5.60;3.25;;;;;;;1.23;81.45;98715.00;4188755;28;20049;-71
2022/02/05 06:57:35;;;;;;;9.52;3.53;;;;;;;1.25;81.52;98713.59;4187999;28;20040;-71
2022/02/05 06:59:36;;;;;;;5.18;3.65;;;;;;;1.32;81.71;98724.03;4188949;28;20120;-72
2022/02/05 07:01:36;;;;;;;6.68;3.17;;;;;;;1.31;81.58;98711.50;4188744;28;20404;-72
2022/02/05 07:03:37;;;;;;;6.15;2.92;;;;;;;1.34;80.86;98719.09;4188214;28;20052;-71
2022/02/05 07:05:37;;;;;;;9.27;3.85;;;;;;;1.39;80.64;98735.31;4189176;28;20064;-71
2022/02/05 07:07:39;;;;;;;6.65;3.10;;;;;;;1.45;80.74;98728.59;4187865;28;20381;-71
2022/02/05 07:09:39;;;;;;;5.10;3.38;;;;;;;1.39;81.32;98732.56;4188772;28;20086;-71
2022/02/05 07:11:39;;;;;;;7.03;3.10;;;;;;;1.39;80.83;98743.47;4188793;28;20380;-72
2022/02/05 07:13:40;;;;;;;5.90;3.15;;;;;;;1.37;80.83;98741.06;4188287;28;20106;-71
2022/02/05 07:20:59;;;;;;;9.95;4.10;;;;;;;1.43;80.75;98752.66;4188364;28;20469;-72
2022/02/05 07:22:36;;;;;;;7.32;3.80;;;;;;;1.50;80.76;98752.22;4177352;28;20369;-71
2022/02/05 07:24:57;;;;;;;9.13;4.20;;;;;;;1.51;80.09;98743.72;4188181;28;20471;-71
2022/02/05 07:29:16;;;;;;;8.77;4.75;;;;;;;1.60;78.92;98760.13;4188258;28;20564;-72
2022/02/05 07:31:18;;;;;;;7.70;3.53;;;;;;;1.58;79.48;98771.38;4187512;28;20151;-71
2022/02/05 07:33:19;;;;;;;6.60;3.60;;;;;;;1.60;79.52;98774.56;4189159;28;20161;-71
2022/02/05 07:35:19;;;;;;;7.78;3.00;;;;;;;1.58;79.76;98774.09;4187280;28;20049;-71
2022/02/05 07:37:20;;;;;;;6.35;2.88;;;;;;;1.57;79.93;98783.41;4188291;28;20037;-71
2022/02/05 07:39:20;;;;;;;7.68;3.83;;;;;;;1.59;79.38;98774.91;4188174;28;20047;-71
2022/02/05 07:41:21;;;;;;;7.53;3.20;;;;;;;1.65;79.51;98782.63;4187991;28;20139;-71
2022/02/05 07:43:29;;;;;;;7.28;2.80;;;;;;;1.69;78.66;98783.63;4188102;28;20059;-71
2022/02/05 07:45:29;;;;;;;5.95;2.63;;;;;;;1.73;79.08;98785.72;4188303;28;20417;-71
2022/02/05 07:47:33;;;;;;;7.38;3.15;;;;;;;1.68;79.19;98783.94;4186664;28;20040;-71
2022/02/05 07:49:42;;;;;;;5.85;3.13;;;;;;;1.64;78.65;98788.38;4189386;28;20048;-71
2022/02/05 07:51:43;;;;;;;4.07;2.58;;;;;;;1.58;79.32;98784.19;4187085;28;20404;-71
2022/02/05 07:53:45;;;;;;;7.13;3.00;;;;;;;1.60;79.53;98790.94;4188691;28;20090;-72
2022/02/05 07:55:46;;;;;;;7.38;3.20;;;;;;;1.55;80.45;98782.88;4189110;28;20439;-72
2022/02/05 07:57:46;;;;;;;4.70;2.97;;;;;;;1.59;80.15;98792.06;4187167;28;20044;-72
2022/02/05 07:59:46;;;;;;;6.65;3.75;;;;;;;1.63;80.10;98789.50;4187371;28;20376;-72
2022/02/05 08:01:47;;;;;;;8.07;3.17;;;;;;;1.60;79.97;98790.94;4186679;28;20051;-72
2022/02/05 08:03:47;;;;;;;7.03;3.58;;;;;;;1.58;80.10;98793.19;4187150;28;20071;-72
2022/02/05 08:05:48;;;;;;;7.97;3.03;;;;;;;1.66;79.35;98797.09;4185191;28;20295;-72
2022/02/05 08:07:48;;;;;;;5.05;3.08;;;;;;;1.66;79.68;98802.53;4187757;28;20039;-72
2022/02/05 08:10:02;;;;;;;6.55;2.65;;;;;;;1.66;79.29;98795.16;4188183;28;20379;-72
2022/02/05 08:12:08;;;;;;;6.93;3.08;;;;;;;1.57;79.67;98782.56;4187025;28;20051;-72
2022/02/05 08:14:10;;;;;;;9.32;2.60;;;;;;;1.61;79.71;98808.13;4163108;28;20095;-72
2022/02/05 08:18:23;;;;;;;5.03;2.92;;;;;;;1.72;78.60;98817.63;4187091;28;20063;-72
2022/02/05 08:20:24;;;;;;;4.50;2.70;;;;;;;1.70;78.89;98806.25;4186541;28;20125;-72
2022/02/05 08:22:25;;;;;;;6.95;3.05;;;;;;;1.71;78.65;98815.22;4187722;28;20083;-72
2022/02/05 08:24:25;;;;;;;7.95;3.20;;;;;;;1.76;78.57;98820.56;4188250;28;20045;-72
2022/02/05 08:26:30;;;;;;;7.82;2.85;;;;;;;1.80;78.29;98813.34;4188464;28;20036;-72
2022/02/05 08:28:31;;;;;;;5.40;3.30;;;;;;;1.89;78.19;98825.94;4186928;28;20102;-72
2022/02/05 08:30:31;;;;;;;6.90;3.10;;;;;;;1.94;77.65;98834.00;4187125;28;20480;-72
2022/02/05 08:32:32;;;;;;;8.13;3.95;;;;;;;2.07;77.09;98834.19;4187155;28;20048;-72
2022/02/05 08:34:32;;;;;;;5.32;2.92;;;;;;;2.15;77.27;98841.63;4187157;28;20127;-72
2022/02/05 08:36:46;;;;;;;5.78;2.95;;;;;;;2.19;76.70;98835.25;4187217;28;20045;-72
2022/02/05 08:38:48;;;;;;;7.75;3.15;;;;;;;2.30;76.47;98837.69;4187619;28;20485;-71
2022/02/05 08:40:49;;;;;;;10.02;3.28;;;;;;;2.31;75.96;98840.09;4187740;28;20055;-71
2022/02/05 08:42:50;;;;;;;9.23;3.58;;;;;;;2.28;77.04;98845.41;4186859;28;20550;-71
2022/02/05 08:44:50;;;;;;;6.25;3.20;;;;;;;2.25;77.00;98844.13;4186519;28;20404;-71
2022/02/05 08:46:50;;;;;;;4.13;2.63;;;;;;;2.32;76.99;98847.19;4186087;28;20121;-71
2022/02/05 08:48:51;;;;;;;9.30;3.00;;;;;;;2.31;76.60;98840.09;4187867;28;20050;-72
2022/02/05 08:50:51;;;;;;;7.20;2.75;;;;;;;2.27;76.40;98852.78;4186970;28;20817;-72
2022/02/05 08:52:54;;;;;;;4.15;2.50;;;;;;;2.29;76.21;98852.47;4187185;28;20083;-72
2022/02/05 08:54:55;;;;;;;6.80;2.75;;;;;;;2.33;76.60;98867.91;4185871;28;20302;-72
2022/02/05 08:56:55;;;;;;;6.13;3.58;;;;;;;2.37;75.87;98855.22;4183714;28;20151;-72
2022/02/05 08:58:56;;;;;;;3.97;2.78;;;;;;;2.31;76.11;98859.22;4187106;28;20047;-72
2022/02/05 09:01:15;;;;;;;7.05;3.42;;;;;;;2.33;76.47;98851.53;4184781;28;20377;-72
2022/02/05 09:03:31;;;;;;;13.68;5.57;;;;;;;2.27;76.90;98857.44;4185732;28;20049;-72
2022/02/05 09:07:32;;;;;;;11.10;4.90;;;;;;;2.34;76.42;98857.81;4185263;28;20040;-72
2022/02/05 09:09:38;;;;;;;8.55;4.25;;;;;;;2.29;77.65;98847.81;4184620;28;20500;-72
2022/02/05 09:11:46;;;;;;;10.50;4.40;;;;;;;2.37;76.46;98857.97;4185592;28;20052;-72
2022/02/05 09:15:46;;;;;;;8.32;3.53;;;;;;;2.35;76.51;98860.22;4186296;28;20045;-72
2022/02/05 09:17:47;;;;;;;6.10;3.13;;;;;;;2.41;75.43;98871.81;4186395;28;20056;-72
2022/02/05 09:19:48;;;;;;;5.43;2.88;;;;;;;2.45;75.59;98862.66;4186747;28;20044;-72
2022/02/05 09:21:48;;;;;;;5.03;2.40;;;;;;;2.50;75.47;98857.06;4186660;28;20100;-72
2022/02/05 09:23:53;;;;;;;4.63;2.55;;;;;;;2.53;75.46;98869.28;4186863;28;20079;-71
2022/02/05 09:25:54;;;;;;;8.13;2.92;;;;;;;2.55;75.44;98869.75;4186643;28;20185;-71
2022/02/05 09:27:54;;;;;;;4.72;2.72;;;;;;;2.54;75.12;98865.44;4185856;28;20055;-71
2022/02/05 09:30:01;;;;;;;4.00;2.60;;;;;;;2.54;75.07;98877.16;4186264;28;20094;-72
2022/02/05 09:32:02;;;;;;;5.60;2.78;;;;;;;2.54;75.27;98868.97;4185684;28;20056;-71
2022/02/05 09:34:05;;;;;;;6.18;3.05;;;;;;;2.63;75.85;98871.72;4186521;28;20038;-72
2022/02/05 09:36:06;;;;;;;4.80;3.15;;;;;;;2.65;74.19;98869.50;4186027;28;20033;-72
2022/02/05 09:38:07;;;;;;;7.57;3.55;;;;;;;2.72;74.19;98869.03;4185573;28;20094;-72
2022/02/05 09:40:07;;;;;;;4.82;2.97;;;;;;;2.74;74.69;98867.59;4186517;28;20524;-72
2022/02/05 09:42:10;;;;;;;2.72;2.13;;;;;;;2.71;74.45;98865.47;4186540;28;20040;-72
2022/02/05 09:44:11;;;;;;;;;;;;;;;2.73;74.99;98868.72;4186867;28;20294;-72
2022/02/05 09:46:12;;;;;;;5.45;2.53;;;;;;;2.82;73.86;98874.22;4186203;28;19916;-72
2022/02/05 09:48:14;;;;;;;7.05;3.72;;;;;;;2.88;74.10;98885.78;4185729;28;20384;-72
2022/02/05 09:50:14;;;;;;;3.90;2.38;;;;;;;2.85;73.34;98880.97;4186657;28;20028;-72
2022/02/05 09:52:24;;;;;;;5.55;2.63;;;;;;;2.88;73.21;98894.00;4186415;28;20029;-72
2022/02/05 09:54:24;;;;;;;6.05;2.65;;;;;;;2.95;73.26;98895.13;4186723;28;20341;-72
2022/02/05 09:56:26;;;;;;;5.43;2.88;;;;;;;2.94;73.64;98887.25;4186136;28;20106;-72
2022/02/05 09:58:26;;;;;;;4.47;2.90;;;;;;;2.93;74.20;98886.47;4184505;28;20040;-72
2022/02/05 10:00:27;;;;;;;4.65;2.50;;;;;;;2.98;73.39;98893.69;4186059;28;20048;-72
2022/02/05 10:02:35;;;;;;;10.82;3.00;;;;;;;3.03;72.13;98894.34;4186299;28;20086;-72
2022/02/05 10:04:55;;;;;;;7.15;2.65;;;;;;;3.10;72.73;98896.63;4185883;28;20132;-71
2022/02/05 10:07:01;;;;;;;6.60;3.13;;;;;;;3.16;72.18;98894.56;4185085;28;20052;-71
2022/02/05 10:09:12;;;;;;;8.40;3.65;;;;;;;3.27;72.15;98899.38;4186315;28;20045;-71
2022/02/05 10:11:13;;;;;;;5.43;3.03;;;;;;;3.31;72.35;98911.31;4186306;28;20109;-72
2022/02/05 10:13:19;;;;;;;2.60;2.40;;;;;;;3.31;72.29;98897.63;4185764;28;20480;-72
2022/02/05 10:15:30;;;;;;;6.00;2.85;;;;;;;3.41;71.49;98899.25;4186391;28;20052;-72
2022/02/05 10:17:45;;;;;;;7.55;2.85;;;;;;;3.44;71.34;98900.53;4185459;28;20040;-72
2022/02/05 10:19:48;;;;;;;4.00;2.42;;;;;;;3.37;71.36;98910.00;4186589;28;20047;-72
2022/02/05 10:22:06;;;;;;;4.05;2.80;;;;;;;3.44;70.09;98904.06;4186212;28;20396;-72
2022/02/05 10:24:08;;;;;;;5.18;2.92;;;;;;;3.43;71.87;98904.41;4185885;28;20184;-71
2022/02/05 10:26:09;;;;;;;4.95;3.28;;;;;;;3.44;72.75;98908.75;4186391;28;20492;-71
2022/02/05 10:28:11;;;;;;;7.40;2.80;;;;;;;3.54;70.63;98911.97;4184757;28;20028;-71
2022/02/05 10:30:12;;;;;;;;;;;;;;;3.61;70.84;98908.75;4186554;28;20066;-71
2022/02/05 10:32:22;;;;;;;5.95;2.35;;;;;;;3.69;70.45;98913.41;4185849;28;19969;-71
2022/02/05 10:34:23;;;;;;;3.15;2.20;;;;;;;3.67;69.89;98904.72;4186080;28;20047;-72
2022/02/05 10:36:28;;;;;;;3.72;2.30;;;;;;;3.78;68.39;98905.22;4186041;28;20037;-72
2022/02/05 10:40:44;;;;;;;3.80;2.65;;;;;;;3.90;67.83;98908.13;4186344;28;20049;-72
2022/02/05 10:43:03;;;;;;;3.40;2.40;;;;;;;3.98;67.98;98901.81;4185813;28;20086;-72
2022/02/05 10:45:06;;;;;;;8.02;2.70;;;;;;;3.98;67.16;98904.56;4186081;28;20140;-72
2022/02/05 10:47:07;;;;;;;4.50;2.35;;;;;;;3.95;67.83;98906.00;4185322;28;20053;-72
2022/02/05 10:49:09;;;;;;;3.78;2.40;;;;;;;3.96;66.43;98898.59;4185885;28;20504;-72
2022/02/05 10:51:10;;;;;;;7.13;2.67;;;;;;;3.85;67.96;98887.16;4186229;28;20102;-72
2022/02/05 10:53:22;;;;;;;3.58;2.58;;;;;;;3.89;68.58;98887.34;4185561;28;20431;-72
2022/02/05 10:55:40;;;;;;;4.93;2.30;;;;;;;3.89;68.95;98887.34;4186091;28;20454;-71
2022/02/05 10:58:09;;;;;;;3.40;2.70;;;;;;;3.97;68.89;98886.50;4185087;28;20041;-71
2022/02/05 11:05:15;;;;;;;4.53;2.80;;;;;;;4.01;69.40;98901.16;4185385;28;20044;-72
2022/02/05 11:07:26;;;;;;;4.72;2.40;;;;;;;4.08;68.50;98892.47;4161298;28;20139;-71
2022/02/05 11:09:26;;;;;;;3.45;2.58;;;;;;;3.99;67.74;98899.88;4187068;28;20492;-71
2022/02/05 11:11:39;;;;;;;5.63;2.90;;;;;;;4.07;67.71;98899.88;4188413;28;20060;-71
2022/02/05 11:18:30;;;;;;;7.63;3.28;;;;;;;4.12;67.78;98899.69;4119713;28;20105;-71
2022/02/05 11:20:31;;;;;;;6.25;2.90;;;;;;;4.08;66.68;98908.88;4188840;28;20044;-72
2022/02/05 11:22:35;;;;;;;3.85;2.40;;;;;;;4.12;67.12;98904.34;4189017;28;20075;-72
2022/02/05 11:24:36;;;;;;;4.28;2.50;;;;;;;4.21;67.46;98905.13;4188591;28;20048;-72
2022/02/05 11:26:38;;;;;;;6.13;2.63;;;;;;;4.35;67.09;98913.19;4188115;28;20089;-72
2022/02/05 11:28:52;;;;;;;6.85;2.30;;;;;;;4.36;67.19;98901.09;4188257;28;20296;-72
2022/02/05 11:30:55;;;;;;;4.63;2.67;;;;;;;4.34;67.97;98912.38;4188468;28;20504;-72
2022/02/05 11:33:03;;;;;;;4.78;2.50;;;;;;;4.36;67.25;98903.81;4188294;28;20037;-72
2022/02/05 11:35:08;;;;;;;16.35;2.85;;;;;;;4.24;66.17;98910.00;4188352;28;20051;-72
2022/02/05 11:37:10;;;;;;;5.25;2.58;;;;;;;4.23;67.13;98906.44;4187377;28;20044;-72
2022/02/05 11:39:17;;;;;;;3.78;2.63;;;;;;;4.20;67.73;98915.28;4188114;28;20044;-72
2022/02/05 11:41:26;;;;;;;6.47;3.00;;;;;;;4.21;67.27;98916.91;4188526;28;20457;-72
2022/02/05 11:43:34;;;;;;;4.88;2.50;;;;;;;4.12;66.38;98915.31;4188187;28;20051;-72
2022/02/05 11:45:35;;;;;;;4.03;2.60;;;;;;;4.10;67.06;98918.38;4187669;28;20052;-71
2022/02/05 11:47:35;;;;;;;6.28;2.65;;;;;;;3.97;68.51;98913.88;4187494;28;20514;-72
2022/02/05 11:49:55;;;;;;;5.57;2.85;;;;;;;3.96;69.49;98936.91;4187660;28;20309;-72
2022/02/05 11:51:55;;;;;;;5.22;2.90;;;;;;;3.78;70.65;98944.31;4187600;28;20106;-72
2022/02/05 11:53:56;;;;;;;5.28;3.47;;;;;;;3.71;71.27;98933.06;4188381;28;20036;-72
2022/02/05 11:56:13;;;;;;;5.68;3.00;;;;;;;3.57;74.58;98933.22;4188128;28;20458;-72
2022/02/05 11:58:15;;;;;;;7.78;3.55;;;;;;;3.55;75.56;98931.91;4186288;28;20045;-71
2022/02/05 12:00:22;;;;;;;7.13;3.33;;;;;;;3.59;74.76;98930.97;4187665;28;20036;-71
2022/02/05 12:02:24;;;;;;;4.00;2.72;;;;;;;3.60;74.66;98926.28;4187873;28;20049;-71
2022/02/05 12:04:29;;;;;;;6.70;3.50;;;;;;;3.65;74.39;98917.94;4188328;28;20117;-71
2022/02/05 12:06:48;;;;;;;5.55;2.65;;;;;;;3.62;73.99;98921.31;4186736;28;20478;-72
2022/02/05 12:08:49;;;;;;;5.43;2.90;;;;;;;3.57;72.96;98919.53;4187766;28;20519;-72
2022/02/05 12:10:52;;;;;;;7.40;3.58;;;;;;;3.54;72.22;98922.91;4187829;28;20130;-72
2022/02/05 12:13:15;;;;;;;6.43;3.13;;;;;;;3.55;71.03;98919.03;4188357;28;20097;-71